Time;durP1;ratioP1;P1;durP2;ratioP2;P2;SDS_P1;SDS_P2;PMS_P1;PMS_P2;Temp;Humidity;BMP_temperature;BMP_pressure;BME280_temperature;BME280_humidity;BME280_pressure;Samples;Min_cycle;Max_cycle;Signal;HPM_P1;HPM_P2
2022/07/26 00:02:01;;;;;;;1.53;0.60;;;;;;;;;;5099159;28;20239;-63
2022/07/26 00:04:29;;;;;;;0.83;0.70;;;;;;;;;;5099190;28;20224;-64
2022/07/26 00:06:57;;;;;;;1.13;0.90;;;;;;;;;;5099564;28;20234;-63
2022/07/26 00:09:25;;;;;;;1.10;0.60;;;;;;;;;;5098198;28;20263;-63
2022/07/26 00:11:54;;;;;;;2.27;0.80;;;;;;;;;;5084853;28;20214;-63
2022/07/26 00:14:22;;;;;;;2.50;0.67;;;;;;;;;;5096868;28;20231;-63
2022/07/26 00:16:50;;;;;;;0.70;0.70;;;;;;;;;;5098144;28;20214;-63
2022/07/26 00:19:18;;;;;;;1.93;0.80;;;;;;;;;;5099190;28;20210;-63
2022/07/26 00:21:47;;;;;;;2.43;0.50;;;;;;;;;;5099038;28;20612;-63
2022/07/26 00:24:15;;;;;;;0.57;0.50;;;;;;;;;;5098637;28;20247;-64
2022/07/26 00:26:43;;;;;;;0.80;0.80;;;;;;;;;;5098870;28;20243;-64
2022/07/26 00:29:12;;;;;;;1.47;0.67;;;;;;;;;;5098977;28;20226;-63
2022/07/26 00:31:40;;;;;;;0.80;0.53;;;;;;;;;;5098631;28;20687;-63
2022/07/26 00:34:08;;;;;;;5.30;1.00;;;;;;;;;;5098501;28;20277;-63
2022/07/26 00:36:36;;;;;;;0.80;0.80;;;;;;;;;;5098759;28;20577;-63
2022/07/26 00:39:08;;;;;;;1.67;1.00;;;;;;;;;;5098919;28;20262;-63
2022/07/26 00:41:37;;;;;;;1.77;0.80;;;;;;;;;;5097066;28;20236;-63
2022/07/26 00:44:05;;;;;;;1.07;0.80;;;;;;;;;;5096855;28;20259;-63
2022/07/26 00:46:34;;;;;;;1.07;0.93;;;;;;;;;;5096405;28;20670;-64
2022/07/26 00:49:02;;;;;;;1.47;1.00;;;;;;;;;;5096750;28;20231;-63
2022/07/26 00:51:30;;;;;;;1.07;0.90;;;;;;;;;;5096400;28;20210;-63
2022/07/26 00:53:58;;;;;;;1.90;1.07;;;;;;;;;;5096961;28;20267;-63
2022/07/26 00:56:27;;;;;;;1.07;1.00;;;;;;;;;;5097727;28;20725;-63
2022/07/26 00:58:55;;;;;;;2.90;1.07;;;;;;;;;;5098618;28;20244;-64
2022/07/26 01:01:23;;;;;;;2.57;1.20;;;;;;;;;;5097969;28;20359;-63
2022/07/26 01:03:53;;;;;;;1.53;1.20;;;;;;;;;;5098462;28;20277;-63
2022/07/26 01:06:21;;;;;;;2.03;1.20;;;;;;;;;;5098426;28;20256;-63
2022/07/26 01:08:54;;;;;;;1.33;1.07;;;;;;;;;;5098281;28;20283;-63
2022/07/26 01:11:22;;;;;;;1.67;1.50;;;;;;;;;;5098168;28;20211;-63
2022/07/26 01:13:50;;;;;;;2.20;1.33;;;;;;;;;;5098111;28;20256;-63
2022/07/26 01:16:18;;;;;;;0.90;0.90;;;;;;;;;;5098117;28;20236;-64
2022/07/26 01:18:46;;;;;;;2.60;0.90;;;;;;;;;;5098316;28;20201;-63
2022/07/26 01:21:16;;;;;;;3.23;1.10;;;;;;;;;;5098214;28;20232;-63
2022/07/26 01:23:45;;;;;;;2.20;1.20;;;;;;;;;;5097711;28;20259;-63
2022/07/26 01:26:13;;;;;;;1.60;1.10;;;;;;;;;;5084603;28;20239;-63
2022/07/26 01:28:41;;;;;;;1.20;1.10;;;;;;;;;;5097717;28;20230;-63
2022/07/26 01:31:09;;;;;;;2.73;1.00;;;;;;;;;;5097587;28;20675;-63
2022/07/26 01:33:37;;;;;;;1.20;1.10;;;;;;;;;;5097651;28;20309;-63
2022/07/26 01:36:06;;;;;;;3.17;1.17;;;;;;;;;;5097803;28;20250;-63
2022/07/26 01:38:34;;;;;;;1.77;1.20;;;;;;;;;;5098079;28;20293;-63
2022/07/26 01:41:03;;;;;;;1.73;1.20;;;;;;;;;;5097988;28;20215;-63
2022/07/26 01:43:31;;;;;;;1.67;1.20;;;;;;;;;;5097713;28;20771;-63
2022/07/26 01:45:59;;;;;;;1.23;1.00;;;;;;;;;;5097742;28;20246;-63
2022/07/26 01:48:27;;;;;;;1.40;1.30;;;;;;;;;;5097986;28;20209;-63
2022/07/26 01:50:57;;;;;;;2.17;1.43;;;;;;;;;;5097791;28;20234;-63
2022/07/26 01:53:25;;;;;;;1.17;1.00;;;;;;;;;;5097647;28;20249;-63
2022/07/26 01:55:53;;;;;;;3.23;1.30;;;;;;;;;;5097832;28;20209;-63
2022/07/26 01:58:22;;;;;;;2.03;1.03;;;;;;;;;;5097876;28;20206;-63
2022/07/26 02:00:50;;;;;;;2.00;1.20;;;;;;;;;;5097378;28;20677;-63
2022/07/26 02:03:18;;;;;;;2.00;1.17;;;;;;;;;;5097508;28;20658;-63
2022/07/26 02:05:46;;;;;;;2.73;1.03;;;;;;;;;;5097853;28;20255;-63
2022/07/26 02:08:14;;;;;;;1.63;1.17;;;;;;;;;;5097831;28;20263;-63
2022/07/26 02:11:00;;;;;;;3.47;1.00;;;;;;;;;;5097604;28;20320;-63
2022/07/26 02:13:33;;;;;;;3.30;1.40;;;;;;;;;;5097467;28;20628;-63
2022/07/26 02:16:01;;;;;;;2.87;1.40;;;;;;;;;;5097133;28;20241;-64
2022/07/26 02:18:30;;;;;;;1.67;1.30;;;;;;;;;;5097646;28;20205;-64
2022/07/26 02:20:58;;;;;;;1.50;1.40;;;;;;;;;;5097553;28;20208;-63
2022/07/26 02:23:26;;;;;;;1.30;1.00;;;;;;;;;;5097060;28;20246;-63
2022/07/26 02:25:55;;;;;;;2.47;1.20;;;;;;;;;;5097302;28;20226;-63
2022/07/26 02:28:23;;;;;;;1.40;1.30;;;;;;;;;;5097625;28;20210;-63
2022/07/26 02:30:52;;;;;;;1.97;1.13;;;;;;;;;;5090171;28;20265;-63
2022/07/26 02:33:20;;;;;;;1.43;1.10;;;;;;;;;;5088799;28;20251;-63
2022/07/26 02:35:48;;;;;;;1.33;1.20;;;;;;;;;;5082701;28;20241;-63
2022/07/26 02:38:16;;;;;;;2.70;1.13;;;;;;;;;;5098542;28;20203;-63
2022/07/26 02:40:44;;;;;;;2.87;1.37;;;;;;;;;;5100920;28;20234;-63
2022/07/26 02:43:12;;;;;;;1.63;1.30;;;;;;;;;;5101031;28;20262;-63
2022/07/26 02:45:40;;;;;;;1.30;1.07;;;;;;;;;;5100679;28;20238;-63
2022/07/26 02:48:10;;;;;;;2.20;1.10;;;;;;;;;;5101021;28;20239;-63
2022/07/26 02:50:39;;;;;;;2.13;1.00;;;;;;;;;;5100362;28;20625;-63
2022/07/26 02:53:07;;;;;;;1.00;1.00;;;;;;;;;;5098284;28;20250;-63
2022/07/26 02:55:35;;;;;;;1.30;1.07;;;;;;;;;;5100647;28;20239;-63
2022/07/26 02:58:03;;;;;;;5.67;1.20;;;;;;;;;;5100601;28;20243;-63
2022/07/26 03:00:31;;;;;;;1.77;1.10;;;;;;;;;;5100148;28;21066;-63
2022/07/26 03:02:59;;;;;;;1.83;1.10;;;;;;;;;;5098470;28;20241;-63
2022/07/26 03:05:29;;;;;;;2.97;1.27;;;;;;;;;;5098642;28;20204;-63
2022/07/26 03:07:57;;;;;;;1.60;1.23;;;;;;;;;;5098755;28;20235;-64
2022/07/26 03:10:25;;;;;;;2.47;1.47;;;;;;;;;;5098585;28;20250;-63
2022/07/26 03:12:53;;;;;;;2.80;1.53;;;;;;;;;;5098572;28;20288;-63
2022/07/26 03:15:21;;;;;;;1.80;1.20;;;;;;;;;;5098462;28;20249;-63
2022/07/26 03:17:50;;;;;;;1.50;1.40;;;;;;;;;;5099997;28;20233;-63
2022/07/26 03:20:18;;;;;;;2.27;1.30;;;;;;;;;;5100261;28;20574;-63
2022/07/26 03:22:47;;;;;;;1.30;1.20;;;;;;;;;;5099942;28;20668;-63
2022/07/26 03:25:15;;;;;;;2.17;1.13;;;;;;;;;;5100188;28;20276;-63
2022/07/26 03:27:43;;;;;;;3.47;1.50;;;;;;;;;;5100424;28;20248;-63
2022/07/26 03:30:11;;;;;;;2.83;1.30;;;;;;;;;;5099818;28;20227;-64
2022/07/26 03:32:55;;;;;;;2.00;1.30;;;;;;;;;;5066223;28;20599;-63
2022/07/26 03:35:23;;;;;;;1.30;1.20;;;;;;;;;;5099751;28;20315;-63
2022/07/26 03:37:52;;;;;;;2.87;1.40;;;;;;;;;;5099900;28;20748;-64
2022/07/26 03:40:21;;;;;;;1.30;1.20;;;;;;;;;;5099941;28;20199;-64
2022/07/26 03:42:49;;;;;;;3.97;1.50;;;;;;;;;;5099993;28;20214;-63
2022/07/26 03:45:17;;;;;;;3.47;1.40;;;;;;;;;;5099629;28;20235;-63
2022/07/26 03:47:45;;;;;;;2.13;1.43;;;;;;;;;;5099752;28;20243;-63
2022/07/26 03:50:13;;;;;;;2.00;1.20;;;;;;;;;;5098716;28;20270;-63
2022/07/26 03:52:41;;;;;;;5.13;1.37;;;;;;;;;;5094537;28;20243;-63
2022/07/26 03:57:56;;;;;;;1.60;1.20;;;;;;;;;;5093558;28;20291;-62
2022/07/26 04:00:24;;;;;;;3.10;1.30;;;;;;;;;;5095960;28;20197;-63
2022/07/26 04:02:52;;;;;;;3.83;1.60;;;;;;;;;;5094287;28;20254;-62
2022/07/26 04:05:20;;;;;;;4.53;1.30;;;;;;;;;;5099404;28;20228;-62
2022/07/26 04:07:52;;;;;;;3.30;1.33;;;;;;;;;;5096306;28;20200;-61
2022/07/26 04:10:22;;;;;;;2.77;1.87;;;;;;;;;;5099875;28;20301;-60
2022/07/26 04:12:50;;;;;;;3.53;1.50;;;;;;;;;;5096090;28;20235;-68
2022/07/26 04:15:30;;;;;;;4.30;1.43;;;;;;;;;;5090776;28;20210;-61
2022/07/26 04:17:58;;;;;;;3.97;2.00;;;;;;;;;;5119092;28;20268;-61
2022/07/26 04:20:26;;;;;;;4.03;2.20;;;;;;;;;;5119352;28;20251;-61
2022/07/26 04:22:54;;;;;;;2.20;1.70;;;;;;;;;;5116558;28;20240;-60
2022/07/26 04:25:24;;;;;;;1.27;1.20;;;;;;;;;;5091322;28;20212;-61
2022/07/26 04:27:52;;;;;;;4.13;1.93;;;;;;;;;;5119487;28;20217;-61
2022/07/26 04:30:20;;;;;;;2.97;1.47;;;;;;;;;;5116928;28;20302;-61
2022/07/26 04:32:48;;;;;;;3.50;1.70;;;;;;;;;;5098310;28;20625;-61
2022/07/26 04:35:16;;;;;;;4.20;1.60;;;;;;;;;;5108494;28;20232;-61
2022/07/26 04:37:44;;;;;;;4.67;1.63;;;;;;;;;;5107689;28;20203;-61
2022/07/26 04:40:16;;;;;;;4.13;1.53;;;;;;;;;;5107307;28;20228;-61
2022/07/26 04:42:50;;;;;;;2.47;1.87;;;;;;;;;;5106561;28;20392;-61
2022/07/26 04:45:18;;;;;;;2.03;1.47;;;;;;;;;;5104674;28;20207;-61
2022/07/26 04:47:48;;;;;;;3.10;1.50;;;;;;;;;;5106684;28;20205;-61
2022/07/26 04:50:17;;;;;;;6.57;2.03;;;;;;;;;;5104629;28;20225;-61
2022/07/26 04:52:45;;;;;;;2.73;1.53;;;;;;;;;;5106754;28;20198;-61
2022/07/26 04:55:13;;;;;;;4.63;1.60;;;;;;;;;;5100685;28;20200;-61
2022/07/26 04:57:41;;;;;;;2.90;1.90;;;;;;;;;;5105919;28;20213;-61
2022/07/26 05:00:12;;;;;;;5.47;1.90;;;;;;;;;;5107463;28;20214;-61
2022/07/26 05:02:50;;;;;;;3.17;1.33;;;;;;;;;;5095499;28;20204;-61
2022/07/26 05:05:19;;;;;;;6.57;2.30;;;;;;;;;;5080957;28;20195;-61
2022/07/26 05:07:48;;;;;;;4.17;1.73;;;;;;;;;;5085561;28;20203;-61
2022/07/26 05:10:17;;;;;;;4.70;1.57;;;;;;;;;;5076831;28;20199;-61
2022/07/26 05:12:45;;;;;;;3.60;1.60;;;;;;;;;;5081501;28;20227;-61
2022/07/26 05:15:15;;;;;;;2.40;1.30;;;;;;;;;;5076848;28;20195;-61
2022/07/26 05:17:43;;;;;;;2.20;1.50;;;;;;;;;;5078709;28;20226;-61
2022/07/26 05:20:13;;;;;;;5.33;1.57;;;;;;;;;;5090298;28;20673;-61
2022/07/26 05:22:41;;;;;;;3.90;1.50;;;;;;;;;;5089553;28;20254;-61
2022/07/26 05:25:10;;;;;;;5.60;1.40;;;;;;;;;;5088436;28;20570;-60
2022/07/26 05:27:39;;;;;;;5.60;1.43;;;;;;;;;;5093011;28;20206;-61
2022/07/26 05:30:08;;;;;;;3.90;1.60;;;;;;;;;;5095051;28;20206;-61
2022/07/26 05:32:37;;;;;;;2.47;1.40;;;;;;;;;;5095268;28;20253;-61
2022/07/26 05:35:06;;;;;;;3.33;1.60;;;;;;;;;;5097147;28;20218;-61
2022/07/26 05:37:34;;;;;;;2.73;1.63;;;;;;;;;;5105026;28;20238;-61
2022/07/26 05:40:02;;;;;;;7.37;1.40;;;;;;;;;;5116524;28;20207;-61
2022/07/26 05:42:30;;;;;;;3.00;1.30;;;;;;;;;;5114606;28;20630;-58
2022/07/26 05:44:58;;;;;;;3.20;1.30;;;;;;;;;;5086373;28;20251;-58
2022/07/26 05:47:27;;;;;;;5.70;1.63;;;;;;;;;;5104523;28;20210;-58
2022/07/26 05:49:56;;;;;;;2.20;1.33;;;;;;;;;;5104155;28;20714;-58
2022/07/26 05:52:24;;;;;;;1.67;1.20;;;;;;;;;;5082033;28;20668;-58
2022/07/26 05:54:52;;;;;;;5.07;2.10;;;;;;;;;;5090580;28;20228;-58
2022/07/26 05:57:21;;;;;;;4.43;1.67;;;;;;;;;;5091107;28;20681;-58
2022/07/26 05:59:48;;;;;;;4.53;1.30;;;;;;;;;;5096437;28;20239;-59
2022/07/26 06:02:17;;;;;;;3.60;1.40;;;;;;;;;;5089471;28;20208;-58
2022/07/26 06:04:45;;;;;;;3.37;1.30;;;;;;;;;;5117410;28;20224;-58
2022/07/26 06:07:16;;;;;;;2.20;1.40;;;;;;;;;;5117479;28;20209;-58
2022/07/26 06:09:44;;;;;;;3.00;1.70;;;;;;;;;;5117689;28;20258;-58
2022/07/26 06:12:12;;;;;;;5.27;1.43;;;;;;;;;;5106164;28;20232;-58
2022/07/26 06:14:40;;;;;;;5.50;1.70;;;;;;;;;;5111158;28;20231;-58
2022/07/26 06:17:09;;;;;;;5.43;1.40;;;;;;;;;;5091634;28;20624;-58
2022/07/26 06:19:37;;;;;;;3.43;1.70;;;;;;;;;;5092120;28;20246;-58
2022/07/26 06:22:05;;;;;;;6.63;1.17;;;;;;;;;;5093820;28;20231;-58
2022/07/26 06:24:34;;;;;;;3.27;1.70;;;;;;;;;;5096869;28;20286;-60
2022/07/26 06:27:02;;;;;;;1.57;1.17;;;;;;;;;;5101073;28;20211;-62
2022/07/26 06:29:32;;;;;;;6.17;1.50;;;;;;;;;;5100974;28;20295;-62
2022/07/26 06:32:00;;;;;;;4.50;1.30;;;;;;;;;;5099707;28;20228;-62
2022/07/26 06:34:28;;;;;;;2.53;1.40;;;;;;;;;;5090815;28;20787;-62
2022/07/26 06:36:56;;;;;;;3.90;1.57;;;;;;;;;;5116833;28;20736;-62
2022/07/26 06:39:24;;;;;;;3.90;1.33;;;;;;;;;;5100926;28;20212;-62
2022/07/26 06:41:53;;;;;;;5.03;1.63;;;;;;;;;;5100801;28;20669;-62
2022/07/26 06:44:21;;;;;;;7.03;1.20;;;;;;;;;;5101032;28;20223;-59
2022/07/26 06:46:49;;;;;;;2.30;1.47;;;;;;;;;;5100797;28;20288;-60
2022/07/26 06:49:17;;;;;;;3.27;2.00;;;;;;;;;;5100990;28;20370;-60
2022/07/26 06:51:49;;;;;;;2.63;1.33;;;;;;;;;;5096800;28;20227;-59
2022/07/26 06:54:17;;;;;;;4.93;1.50;;;;;;;;;;5083821;28;20653;-60
2022/07/26 06:56:45;;;;;;;2.63;1.33;;;;;;;;;;5117550;28;20246;-59
2022/07/26 06:59:15;;;;;;;3.03;1.60;;;;;;;;;;5105129;28;20231;-59
2022/07/26 07:01:43;;;;;;;6.13;1.47;;;;;;;;;;5100055;28;20333;-59
2022/07/26 07:04:26;;;;;;;2.23;1.30;;;;;;;;;;5095123;28;20222;-58
2022/07/26 07:06:54;;;;;;;2.57;1.37;;;;;;;;;;5100393;28;20210;-59
2022/07/26 07:09:24;;;;;;;2.87;1.33;;;;;;;;;;5100354;28;20206;-59
2022/07/26 07:11:52;;;;;;;3.80;1.50;;;;;;;;;;5097939;28;20225;-59
2022/07/26 07:14:28;;;;;;;6.40;1.70;;;;;;;;;;5120290;28;20236;-59
2022/07/26 07:16:56;;;;;;;2.90;1.47;;;;;;;;;;5093344;28;20207;-59
2022/07/26 07:19:24;;;;;;;4.57;2.03;;;;;;;;;;5087418;28;20666;-60
2022/07/26 07:21:52;;;;;;;3.67;1.80;;;;;;;;;;5091953;28;20225;-60
2022/07/26 07:24:20;;;;;;;3.20;1.50;;;;;;;;;;5105516;28;20675;-60
2022/07/26 07:26:49;;;;;;;3.17;1.30;;;;;;;;;;5092677;28;20209;-60
2022/07/26 07:29:19;;;;;;;2.30;1.57;;;;;;;;;;5120764;27;20204;-60
2022/07/26 07:31:49;;;;;;;3.97;1.20;;;;;;;;;;5105991;28;20234;-60
2022/07/26 07:34:21;;;;;;;4.27;1.50;;;;;;;;;;5099844;28;20700;-59
2022/07/26 07:36:51;;;;;;;5.53;1.50;;;;;;;;;;5100129;28;20209;-59
2022/07/26 07:39:19;;;;;;;4.27;1.67;;;;;;;;;;5092526;28;20203;-60
2022/07/26 07:41:47;;;;;;;2.03;1.10;;;;;;;;;;5095801;28;20250;-60
2022/07/26 07:44:16;;;;;;;3.67;1.40;;;;;;;;;;5116313;28;20221;-60
2022/07/26 07:46:44;;;;;;;3.83;1.47;;;;;;;;;;5099197;28;20258;-60
2022/07/26 07:49:14;;;;;;;4.83;1.83;;;;;;;;;;5089914;28;20208;-59
2022/07/26 07:51:42;;;;;;;2.97;1.40;;;;;;;;;;5098253;28;20208;-59
2022/07/26 07:54:14;;;;;;;2.63;1.20;;;;;;;;;;5099043;28;20231;-59
2022/07/26 07:56:42;;;;;;;5.20;1.80;;;;;;;;;;5093511;28;20287;-59
2022/07/26 07:59:11;;;;;;;2.97;1.63;;;;;;;;;;5110751;28;20255;-59
2022/07/26 08:01:39;;;;;;;2.90;1.90;;;;;;;;;;5119454;28;20209;-59
2022/07/26 08:04:07;;;;;;;3.67;1.50;;;;;;;;;;5108594;28;20214;-60
2022/07/26 08:06:37;;;;;;;3.00;1.67;;;;;;;;;;5097968;28;20206;-59
2022/07/26 08:09:08;;;;;;;3.77;1.53;;;;;;;;;;5102334;28;20208;-60
2022/07/26 08:11:40;;;;;;;4.07;1.80;;;;;;;;;;5119573;28;20242;-60
2022/07/26 08:14:09;;;;;;;5.13;1.90;;;;;;;;;;5119022;28;20762;-61
2022/07/26 08:16:37;;;;;;;4.30;1.83;;;;;;;;;;5119323;28;20211;-60
2022/07/26 08:19:07;;;;;;;7.20;1.73;;;;;;;;;;5109342;28;20247;-60
2022/07/26 08:21:37;;;;;;;7.77;1.60;;;;;;;;;;5099129;28;20201;-60
2022/07/26 08:24:06;;;;;;;3.37;1.60;;;;;;;;;;5095535;28;20247;-60
2022/07/26 08:26:34;;;;;;;7.17;1.80;;;;;;;;;;5098682;28;20239;-59
2022/07/26 08:29:02;;;;;;;6.83;2.00;;;;;;;;;;5098625;28;20207;-59
2022/07/26 08:31:31;;;;;;;5.53;1.50;;;;;;;;;;5098155;28;20208;-60
2022/07/26 08:33:59;;;;;;;4.33;1.70;;;;;;;;;;5091069;28;20310;-60
2022/07/26 08:36:27;;;;;;;5.20;1.60;;;;;;;;;;5098378;28;20243;-59
2022/07/26 08:39:01;;;;;;;2.97;1.57;;;;;;;;;;5097728;28;20209;-59
2022/07/26 08:41:30;;;;;;;2.97;1.50;;;;;;;;;;5091481;28;20206;-60
2022/07/26 08:44:04;;;;;;;3.23;1.50;;;;;;;;;;5098250;28;20314;-60
2022/07/26 08:46:34;;;;;;;5.07;1.70;;;;;;;;;;5098008;28;20236;-61
2022/07/26 08:49:03;;;;;;;2.13;1.23;;;;;;;;;;5088708;28;20576;-61
2022/07/26 08:51:31;;;;;;;2.63;1.73;;;;;;;;;;5102183;28;20320;-60
2022/07/26 08:54:00;;;;;;;1.97;1.60;;;;;;;;;;5098467;28;20269;-61
2022/07/26 08:56:35;;;;;;;1.97;1.53;;;;;;;;;;5098136;28;20241;-61
2022/07/26 08:59:11;;;;;;;2.03;1.40;;;;;;;;;;5098535;28;20214;-61
2022/07/26 09:01:50;;;;;;;3.77;1.50;;;;;;;;;;5097909;28;20210;-61
2022/07/26 09:04:19;;;;;;;4.87;1.60;;;;;;;;;;5098248;28;20262;-59
2022/07/26 09:06:59;;;;;;;2.00;1.80;;;;;;;;;;5098183;28;20596;-59
2022/07/26 09:09:28;;;;;;;3.03;1.40;;;;;;;;;;5098340;28;20208;-61
2022/07/26 09:11:58;;;;;;;2.73;1.57;;;;;;;;;;5098123;28;20239;-60
2022/07/26 09:14:35;;;;;;;2.37;1.30;;;;;;;;;;5097598;28;20227;-59
2022/07/26 09:17:04;;;;;;;4.77;1.60;;;;;;;;;;5096456;28;20212;-59
2022/07/26 09:19:33;;;;;;;4.10;1.63;;;;;;;;;;5096305;28;20231;-61
2022/07/26 09:22:06;;;;;;;2.57;1.40;;;;;;;;;;5096108;28;20673;-61
2022/07/26 09:24:37;;;;;;;3.23;1.50;;;;;;;;;;5096204;28;20253;-60
2022/07/26 09:27:08;;;;;;;3.63;1.40;;;;;;;;;;5096015;28;20244;-59
2022/07/26 09:29:43;;;;;;;2.73;1.20;;;;;;;;;;5095664;28;20677;-60
2022/07/26 09:32:15;;;;;;;3.30;1.20;;;;;;;;;;5098226;28;20208;-59
2022/07/26 09:34:44;;;;;;;3.23;1.90;;;;;;;;;;5097939;28;20227;-60
2022/07/26 09:37:32;;;;;;;1.80;1.50;;;;;;;;;;5097777;28;20215;-59
2022/07/26 09:40:00;;;;;;;2.40;1.40;;;;;;;;;;5097833;28;20203;-60
2022/07/26 09:42:30;;;;;;;3.63;1.50;;;;;;;;;;5098000;28;20246;-61
2022/07/26 09:44:58;;;;;;;1.77;1.37;;;;;;;;;;5097315;28;20220;-61
2022/07/26 09:47:35;;;;;;;6.70;2.30;;;;;;;;;;5098418;28;20713;-62
2022/07/26 09:50:10;;;;;;;3.17;1.50;;;;;;;;;;5101926;28;20220;-61
2022/07/26 09:52:39;;;;;;;1.50;1.13;;;;;;;;;;5097050;28;20204;-61
2022/07/26 09:55:08;;;;;;;2.03;1.20;;;;;;;;;;5101984;28;20307;-59
2022/07/26 09:57:37;;;;;;;2.40;1.43;;;;;;;;;;5102020;28;20253;-60
2022/07/26 10:00:06;;;;;;;3.00;1.57;;;;;;;;;;5101523;28;20231;-61
2022/07/26 10:02:34;;;;;;;1.93;1.70;;;;;;;;;;5101893;28;20238;-61
2022/07/26 10:05:02;;;;;;;6.13;2.07;;;;;;;;;;5102017;28;20231;-61
2022/07/26 10:07:30;;;;;;;4.20;1.17;;;;;;;;;;5101847;28;20265;-61
2022/07/26 10:10:01;;;;;;;2.00;1.27;;;;;;;;;;5101649;28;20208;-61
2022/07/26 10:12:31;;;;;;;1.80;1.20;;;;;;;;;;5101686;28;20212;-61
2022/07/26 10:15:00;;;;;;;3.63;1.60;;;;;;;;;;5101410;28;20255;-61
2022/07/26 10:17:49;;;;;;;1.70;1.60;;;;;;;;;;5101626;28;20214;-61
2022/07/26 10:20:39;;;;;;;2.30;1.57;;;;;;;;;;5101421;28;20211;-60
2022/07/26 10:23:21;;;;;;;2.27;1.40;;;;;;;;;;5101181;28;20278;-60
2022/07/26 10:25:49;;;;;;;2.30;1.13;;;;;;;;;;5100915;28;20240;-61
2022/07/26 10:28:25;;;;;;;2.40;1.43;;;;;;;;;;5101310;28;20732;-61
2022/07/26 10:31:15;;;;;;;2.03;1.50;;;;;;;;;;5101101;28;20226;-61
2022/07/26 10:33:44;;;;;;;2.00;1.30;;;;;;;;;;5100868;28;20234;-61
2022/07/26 10:36:21;;;;;;;2.03;1.20;;;;;;;;;;5101214;28;20577;-61
2022/07/26 10:38:58;;;;;;;4.43;1.10;;;;;;;;;;5101052;28;20265;-61
2022/07/26 10:41:32;;;;;;;1.30;1.20;;;;;;;;;;5100959;28;20225;-61
2022/07/26 10:44:18;;;;;;;2.37;1.23;;;;;;;;;;5100907;28;20254;-60
2022/07/26 10:47:01;;;;;;;2.10;1.03;;;;;;;;;;5100873;28;20234;-61
2022/07/26 10:49:36;;;;;;;1.60;1.23;;;;;;;;;;5099018;28;20216;-60
2022/07/26 10:52:05;;;;;;;2.10;1.13;;;;;;;;;;5095729;28;20234;-60
2022/07/26 10:54:59;;;;;;;4.07;1.33;;;;;;;;;;5100550;28;20227;-60
2022/07/26 10:57:28;;;;;;;2.73;1.37;;;;;;;;;;5100523;28;20550;-59
2022/07/26 10:59:57;;;;;;;2.80;1.23;;;;;;;;;;5099727;28;20257;-60
2022/07/26 11:02:27;;;;;;;4.10;1.33;;;;;;;;;;5100566;28;20258;-59
2022/07/26 11:05:00;;;;;;;2.23;1.20;;;;;;;;;;5100563;28;20219;-59
2022/07/26 11:07:29;;;;;;;6.63;2.20;;;;;;;;;;5100720;28;20234;-59
2022/07/26 11:09:57;;;;;;;2.97;1.00;;;;;;;;;;5100675;28;20208;-60
2022/07/26 11:12:25;;;;;;;2.03;1.13;;;;;;;;;;5100262;28;20641;-60
2022/07/26 11:14:53;;;;;;;2.23;1.20;;;;;;;;;;5100195;28;20235;-59
2022/07/26 11:17:25;;;;;;;4.83;1.27;;;;;;;;;;5100224;28;20215;-59
2022/07/26 11:19:53;;;;;;;2.23;1.00;;;;;;;;;;5100533;28;20207;-60
2022/07/26 11:22:30;;;;;;;1.53;1.10;;;;;;;;;;5100260;28;20236;-61
2022/07/26 11:24:58;;;;;;;1.47;0.90;;;;;;;;;;5100360;28;20225;-61
2022/07/26 11:27:26;;;;;;;1.60;1.50;;;;;;;;;;5100263;28;20214;-61
2022/07/26 11:29:54;;;;;;;3.67;1.53;;;;;;;;;;5100130;28;20210;-61
2022/07/26 11:32:25;;;;;;;1.63;1.30;;;;;;;;;;5099922;28;20662;-61
2022/07/26 11:34:58;;;;;;;2.70;1.20;;;;;;;;;;5099751;28;20223;-61
2022/07/26 11:37:27;;;;;;;1.93;1.43;;;;;;;;;;5099907;28;20269;-61
2022/07/26 11:39:55;;;;;;;3.57;1.20;;;;;;;;;;5099819;28;20205;-62
2022/07/26 11:42:23;;;;;;;3.90;1.50;;;;;;;;;;5086754;28;20211;-61
2022/07/26 11:44:52;;;;;;;5.70;1.53;;;;;;;;;;5099363;28;20228;-61
2022/07/26 11:47:22;;;;;;;1.80;1.10;;;;;;;;;;5100202;28;20283;-61
2022/07/26 11:49:53;;;;;;;4.47;1.80;;;;;;;;;;5099896;28;20210;-61
2022/07/26 11:52:42;;;;;;;8.33;1.10;;;;;;;;;;5094581;28;20208;-61
2022/07/26 11:55:11;;;;;;;2.77;1.27;;;;;;;;;;5099740;28;20222;-61
2022/07/26 11:57:39;;;;;;;3.90;1.10;;;;;;;;;;5099568;28;20254;-61
2022/07/26 12:00:07;;;;;;;2.10;1.10;;;;;;;;;;5099221;28;20210;-61
2022/07/26 12:02:35;;;;;;;7.00;1.47;;;;;;;;;;5099419;28;20210;-61
2022/07/26 12:05:13;;;;;;;1.50;1.20;;;;;;;;;;5099633;28;20257;-61
2022/07/26 12:07:54;;;;;;;1.73;1.23;;;;;;;;;;5099548;28;20296;-62
2022/07/26 12:10:22;;;;;;;1.97;1.30;;;;;;;;;;5098755;28;20210;-61
2022/07/26 12:13:05;;;;;;;1.33;1.23;;;;;;;;;;5099141;28;20231;-61
2022/07/26 12:15:43;;;;;;;5.07;1.40;;;;;;;;;;5098877;28;20223;-61
2022/07/26 12:18:11;;;;;;;2.17;1.33;;;;;;;;;;5099475;28;20280;-61
2022/07/26 12:20:39;;;;;;;1.80;1.43;;;;;;;;;;5099105;28;20208;-61
2022/07/26 12:23:08;;;;;;;1.77;1.20;;;;;;;;;;5098811;28;20248;-62
2022/07/26 12:25:37;;;;;;;4.28;1.45;;;;;;;;;;5098984;28;20248;-61
2022/07/26 12:28:13;;;;;;;2.27;1.23;;;;;;;;;;5099042;28;20346;-61
2022/07/26 12:30:41;;;;;;;1.13;1.03;;;;;;;;;;5098619;28;20259;-61
2022/07/26 12:33:09;;;;;;;1.93;1.10;;;;;;;;;;5098792;28;20303;-61
2022/07/26 12:35:37;;;;;;;1.63;1.40;;;;;;;;;;5098887;28;20236;-61
2022/07/26 12:38:05;;;;;;;1.77;1.13;;;;;;;;;;5098800;28;20212;-61
2022/07/26 12:40:41;;;;;;;3.23;1.23;;;;;;;;;;5098836;28;20210;-62
2022/07/26 12:43:10;;;;;;;3.00;1.00;;;;;;;;;;5098609;28;20254;-61
2022/07/26 12:45:38;;;;;;;1.20;1.10;;;;;;;;;;5098402;28;20669;-61
2022/07/26 12:48:08;;;;;;;1.37;1.27;;;;;;;;;;5098805;28;20239;-61
2022/07/26 12:50:36;;;;;;;4.20;1.50;;;;;;;;;;5098653;28;20613;-61
2022/07/26 12:53:05;;;;;;;1.70;1.30;;;;;;;;;;5093855;28;20267;-61
2022/07/26 12:55:33;;;;;;;3.47;1.47;;;;;;;;;;5098327;28;20609;-61
2022/07/26 12:58:03;;;;;;;1.63;1.30;;;;;;;;;;5098643;28;20215;-61
2022/07/26 13:00:31;;;;;;;1.50;1.40;;;;;;;;;;5098430;28;20230;-61
2022/07/26 13:02:59;;;;;;;5.20;1.50;;;;;;;;;;5098218;28;20612;-61
2022/07/26 13:05:27;;;;;;;1.70;1.33;;;;;;;;;;5098321;28;20201;-61
2022/07/26 13:07:55;;;;;;;4.03;1.93;;;;;;;;;;5098197;28;20205;-61
2022/07/26 13:10:23;;;;;;;1.03;1.03;;;;;;;;;;5098168;28;20213;-61
2022/07/26 13:13:03;;;;;;;2.67;1.10;;;;;;;;;;5098396;28;20257;-61
2022/07/26 13:15:31;;;;;;;2.07;1.40;;;;;;;;;;5098137;28;20232;-61
2022/07/26 13:18:05;;;;;;;3.43;1.70;;;;;;;;;;5098247;28;20205;-62
2022/07/26 13:20:33;;;;;;;2.72;1.40;;;;;;;;;;5098207;28;20215;-61
2022/07/26 13:23:01;;;;;;;2.13;1.13;;;;;;;;;;5097645;28;20601;-61
2022/07/26 13:25:30;;;;;;;2.58;1.27;;;;;;;;;;5097964;28;20295;-61
2022/07/26 13:28:07;;;;;;;2.28;1.42;;;;;;;;;;5097987;28;20232;-61
2022/07/26 13:30:35;;;;;;;5.13;1.42;;;;;;;;;;5097797;28;20230;-62
2022/07/26 13:33:04;;;;;;;3.15;1.40;;;;;;;;;;5098080;28;20198;-62
2022/07/26 13:35:32;;;;;;;2.40;1.38;;;;;;;;;;5097745;28;20226;-61
2022/07/26 13:37:59;;;;;;;5.78;1.42;;;;;;;;;;5098120;28;20211;-62
2022/07/26 13:40:28;;;;;;;2.33;1.27;;;;;;;;;;5097973;28;20210;-62
2022/07/26 13:42:58;;;;;;;1.15;0.82;;;;;;;;;;5097743;28;20211;-61
2022/07/26 13:45:28;;;;;;;1.90;1.10;;;;;;;;;;5097453;28;20756;-61
2022/07/26 13:47:57;;;;;;;1.13;0.85;;;;;;;;;;5097835;28;20209;-61
2022/07/26 13:50:26;;;;;;;3.53;1.10;;;;;;;;;;5097922;28;20213;-61
2022/07/26 13:52:55;;;;;;;4.57;1.30;;;;;;;;;;5091642;28;20270;-61
2022/07/26 13:55:24;;;;;;;4.28;1.20;;;;;;;;;;5097618;28;20221;-62
2022/07/26 13:57:52;;;;;;;2.20;1.20;;;;;;;;;;5097819;28;20204;-61
2022/07/26 14:00:24;;;;;;;1.75;1.10;;;;;;;;;;5097447;28;20273;-60
2022/07/26 14:02:54;;;;;;;1.25;0.90;;;;;;;;;;5097685;28;20205;-61
2022/07/26 14:05:22;;;;;;;1.98;1.13;;;;;;;;;;5097649;28;20213;-60
2022/07/26 14:07:50;;;;;;;1.25;1.10;;;;;;;;;;5097504;28;20205;-61
2022/07/26 14:10:18;;;;;;;1.80;1.00;;;;;;;;;;5097461;28;20209;-61
2022/07/26 14:12:47;;;;;;;2.10;1.10;;;;;;;;;;5097408;28;20248;-61
2022/07/26 14:15:15;;;;;;;1.95;0.98;;;;;;;;;;5097444;28;20240;-61
2022/07/26 14:17:49;;;;;;;1.58;0.82;;;;;;;;;;5097341;28;20212;-61
2022/07/26 14:20:19;;;;;;;4.05;0.80;;;;;;;;;;5097463;28;20235;-61
2022/07/26 14:22:47;;;;;;;4.63;1.10;;;;;;;;;;5097020;28;20265;-61
2022/07/26 14:25:15;;;;;;;3.60;1.15;;;;;;;;;;5097435;28;20261;-61
2022/07/26 14:27:43;;;;;;;3.22;1.30;;;;;;;;;;5097573;28;20205;-61
2022/07/26 14:30:12;;;;;;;2.33;1.00;;;;;;;;;;5097037;28;20574;-61
2022/07/26 14:32:40;;;;;;;1.23;1.13;;;;;;;;;;5097559;28;20258;-61
2022/07/26 14:35:09;;;;;;;2.47;1.17;;;;;;;;;;5100650;28;20258;-61
2022/07/26 14:37:38;;;;;;;1.10;1.08;;;;;;;;;;5101079;28;20260;-61
2022/07/26 14:40:12;;;;;;;1.33;1.00;;;;;;;;;;5100856;28;20232;-61
2022/07/26 14:42:40;;;;;;;2.15;1.33;;;;;;;;;;5101319;28;20205;-61
2022/07/26 14:45:09;;;;;;;2.22;1.13;;;;;;;;;;5100554;28;20687;-61
2022/07/26 14:47:37;;;;;;;2.17;1.10;;;;;;;;;;5100948;28;20201;-61
2022/07/26 14:50:05;;;;;;;1.25;1.00;;;;;;;;;;5101085;28;20205;-61
2022/07/26 14:52:36;;;;;;;1.80;0.95;;;;;;;;;;5095601;28;20205;-59
2022/07/26 14:55:07;;;;;;;1.30;1.20;;;;;;;;;;5100886;28;20272;-60
2022/07/26 14:57:35;;;;;;;3.50;1.15;;;;;;;;;;5100876;28;20225;-59
2022/07/26 15:00:07;;;;;;;1.02;0.93;;;;;;;;;;5100364;28;20571;-59
2022/07/26 15:02:35;;;;;;;2.67;0.80;;;;;;;;;;5100906;28;20244;-61